KHEZ/HEZ METAR and TAF weather

Enter ICAO airport designator
Station Type Date Time Source
KHEZ METAR 2019/08/19 01:56 UTC NOAA

KHEZ 190156Z AUTO 36004KT 10SM BKN030 BKN041 27/24 A2999 RMK AO2 LTG DSNT NE RAB03E27 SLP153 P0000 T02670244


Station Type Date Time Source
KHEZ Decoded METAR 2019/08/19 01:56 UTC NOAA

Station name not available
Aug 18, 2019 - 09:56 PM EDT / 2019.08.19 0156 UTC
Wind: from the N (360 degrees) at 5 MPH (4 KT):0
Visibility: 10 mile(s):0
Sky conditions: mostly cloudy
Weather: Lightning observed
Precipitation last hour: A trace
Temperature: 80.1 F (26.7 C)
Dew Point: 75.9 F (24.4 C)
Relative Humidity: 87%
Pressure (altimeter): 29.99 in. Hg (1015 hPa)
ob: KHEZ 190156Z AUTO 36004KT 10SM BKN030 BKN041 27/24 A2999 RMK AO2 LTG DSNT NE RAB03E27 SLP153 P0000 T02670244
cycle: 2

Station Type Date Time Source
KHEZ TAF UTC NOAA

Error!

Example: see airport list